Time;durP1;ratioP1;P1;durP2;ratioP2;P2;SDS_P1;SDS_P2;PMS_P1;PMS_P2;Temp;Humidity;BMP_temperature;BMP_pressure;BME280_temperature;BME280_humidity;BME280_pressure;Samples;Min_cycle;Max_cycle;Signal;HPM_P1;HPM_P2
2022/12/23 00:00:56;;;;;;;2.72;1.38;;;;;;;17.60;53.26;100170.78;5043606;28;20033;-64
2022/12/23 00:03:22;;;;;;;1.65;0.90;;;;;;;17.61;53.62;100180.59;5015648;28;20026;-65
2022/12/23 00:05:47;;;;;;;4.30;0.98;;;;;;;17.61;53.61;100180.59;5024028;28;20028;-66
2022/12/23 00:08:13;;;;;;;2.00;0.77;;;;;;;17.62;53.41;100174.13;5005219;28;20051;-63
2022/12/23 00:10:39;;;;;;;3.85;1.00;;;;;;;17.61;52.96;100174.34;5061847;28;20043;-66
2022/12/23 00:15:49;;;;;;;0.60;0.57;;;;;;;17.54;53.91;100174.25;5039589;28;20039;-65
2022/12/23 00:18:14;;;;;;;0.93;0.85;;;;;;;17.56;54.11;100179.50;5040194;28;20033;-65
2022/12/23 00:20:39;;;;;;;2.47;0.90;;;;;;;17.55;54.42;100172.41;5017631;28;20033;-65
2022/12/23 00:23:06;;;;;;;2.97;0.70;;;;;;;17.54;53.71;100176.97;5072475;28;20031;-64
2022/12/23 00:25:39;;;;;;;2.97;1.15;;;;;;;17.57;53.96;100175.75;5037587;28;20047;-64
2022/12/23 00:28:10;;;;;;;2.40;1.15;;;;;;;17.58;53.63;100175.56;5038388;28;20033;-64
2022/12/23 00:30:56;;;;;;;3.53;1.05;;;;;;;17.60;54.19;100186.19;5054025;28;20086;-64
2022/12/23 00:33:25;;;;;;;4.50;1.20;;;;;;;17.64;53.77;100188.34;5046974;28;20025;-64
2022/12/23 00:35:51;;;;;;;2.45;1.20;;;;;;;17.67;52.93;100187.94;5037023;28;20468;-65
2022/12/23 00:42:52;;;;;;;2.10;0.90;;;;;;;17.69;52.82;100185.91;5038285;28;20047;-65
2022/12/23 00:43:48;;;;;;;2.42;1.20;;;;;;;17.71;53.88;100188.41;5072267;28;20059;-65
2022/12/23 00:46:13;;;;;;;6.28;1.80;;;;;;;17.67;53.54;100193.38;5053834;28;20068;-64
2022/12/23 00:51:24;;;;;;;2.55;1.50;;;;;;;17.62;54.24;100201.22;5056888;28;20034;-68
2022/12/23 00:53:49;;;;;;;4.90;1.80;;;;;;;17.61;53.73;100210.41;5037250;28;20032;-68
2022/12/23 00:56:14;;;;;;;2.92;1.30;;;;;;;17.58;54.41;100216.19;5053909;28;20389;-68
2022/12/23 00:58:40;;;;;;;5.80;2.05;;;;;;;17.59;53.78;100217.84;5053767;28;20041;-67
2022/12/23 01:06:33;;;;;;;4.47;1.95;;;;;;;17.53;53.63;100215.06;5056418;28;20086;-65
2022/12/23 01:08:58;;;;;;;2.50;1.63;;;;;;;17.51;54.13;100215.22;5036796;28;20032;-65
2022/12/23 01:11:24;;;;;;;5.85;1.33;;;;;;;17.54;54.54;100225.72;5054078;28;20020;-64
2022/12/23 01:13:49;;;;;;;3.65;1.85;;;;;;;17.58;53.30;100235.16;5053565;28;20090;-65
2022/12/23 01:16:14;;;;;;;3.58;2.40;;;;;;;17.60;54.11;100230.38;5053517;28;20036;-64
2022/12/23 01:18:40;;;;;;;4.82;1.65;;;;;;;17.61;54.04;100226.66;5053547;28;20496;-65
2022/12/23 01:21:07;;;;;;;4.57;1.60;;;;;;;17.62;53.50;100241.84;5052207;28;20447;-65
2022/12/23 01:23:33;;;;;;;3.72;1.80;;;;;;;17.64;54.55;100242.53;5053922;28;20067;-65
2022/12/23 01:26:01;;;;;;;4.95;2.20;;;;;;;17.58;53.35;100235.16;5054889;28;20504;-69
2022/12/23 01:28:29;;;;;;;5.50;2.35;;;;;;;17.64;54.14;100238.97;5057335;28;20104;-64
2022/12/23 01:30:55;;;;;;;4.88;2.10;;;;;;;17.64;54.15;100241.69;5040635;28;20029;-65
2022/12/23 01:33:20;;;;;;;6.20;2.35;;;;;;;17.64;53.69;100237.13;5040773;28;20454;-65
2022/12/23 01:35:46;;;;;;;8.50;2.15;;;;;;;17.63;53.65;100240.84;5024080;28;20037;-65
2022/12/23 01:38:11;;;;;;;8.18;3.17;;;;;;;17.64;53.33;100241.69;5041055;28;20032;-65
2022/12/23 01:40:39;;;;;;;4.25;1.98;;;;;;;17.65;53.49;100241.47;5074696;28;20562;-65
2022/12/23 01:43:05;;;;;;;4.32;1.70;;;;;;;17.66;54.16;100245.03;5056812;28;20392;-65
2022/12/23 01:45:31;;;;;;;6.40;1.98;;;;;;;17.68;54.27;100242.97;5040497;28;20033;-66
2022/12/23 01:48:16;;;;;;;9.80;2.00;;;;;;;17.68;54.37;100243.81;5023869;28;20029;-65
2022/12/23 01:50:45;;;;;;;2.30;1.52;;;;;;;17.68;53.55;100254.66;5040126;28;20396;-65
2022/12/23 01:53:20;;;;;;;6.13;2.00;;;;;;;17.67;52.98;100244.84;5075212;28;20067;-64
2022/12/23 01:56:07;;;;;;;4.32;1.80;;;;;;;17.68;54.21;100251.09;5056877;28;20028;-64
2022/12/23 01:58:36;;;;;;;10.68;1.75;;;;;;;17.64;54.22;100253.38;5040110;28;20029;-64
2022/12/23 02:03:48;;;;;;;11.13;2.03;;;;;;;17.60;53.58;100262.88;5075041;28;20060;-65
2022/12/23 02:09:18;;;;;;;4.93;1.60;;;;;;;17.54;53.83;100263.63;5059191;28;20447;-64
2022/12/23 02:11:52;;;;;;;5.03;1.88;;;;;;;17.58;53.86;100274.94;5056584;28;20020;-65
2022/12/23 02:17:25;;;;;;;4.03;1.83;;;;;;;17.57;53.88;100276.78;5074355;28;20412;-65
2022/12/23 02:20:12;;;;;;;8.32;2.05;;;;;;;17.60;53.76;100272.88;5056307;28;20029;-65
2022/12/23 02:22:59;;;;;;;5.55;1.77;;;;;;;17.61;54.25;100274.56;5073841;28;20063;-64
2022/12/23 02:25:42;;;;;;;4.75;1.98;;;;;;;17.61;53.20;100278.13;5074073;28;20119;-64
2022/12/23 02:28:28;;;;;;;4.75;1.75;;;;;;;17.63;53.61;100295.00;5074213;28;20032;-64
2022/12/23 02:31:09;;;;;;;6.13;2.28;;;;;;;17.64;54.03;100285.03;5056152;28;20024;-64
2022/12/23 02:33:40;;;;;;;4.15;1.92;;;;;;;17.65;53.74;100278.56;5039871;28;20060;-64
2022/12/23 02:36:13;;;;;;;5.38;1.52;;;;;;;17.62;53.76;100287.91;5074085;28;20526;-64
2022/12/23 02:38:54;;;;;;;2.92;1.48;;;;;;;17.62;53.92;100297.88;5055767;28;20027;-64
2022/12/23 02:41:56;;;;;;;6.18;1.92;;;;;;;17.62;53.51;100304.16;5074500;28;20032;-63
2022/12/23 02:44:31;;;;;;;5.55;2.10;;;;;;;17.62;53.80;100320.41;5003257;28;20040;-64
2022/12/23 02:47:00;;;;;;;5.40;1.85;;;;;;;17.60;54.40;100333.31;5073969;28;20037;-64
2022/12/23 02:49:31;;;;;;;4.50;1.83;;;;;;;17.60;53.23;100343.28;5039344;28;20389;-64
2022/12/23 02:51:59;;;;;;;10.07;1.90;;;;;;;17.60;53.62;100349.56;5039325;28;20040;-63
2022/12/23 02:54:29;;;;;;;7.68;1.42;;;;;;;17.62;54.17;100352.91;5055796;28;20484;-64
2022/12/23 02:56:55;;;;;;;12.18;3.03;;;;;;;17.66;53.45;100343.41;5055314;28;20127;-65
2022/12/23 02:59:25;;;;;;;4.40;1.80;;;;;;;17.66;53.13;100327.16;5039657;28;20025;-64
2022/12/23 03:01:51;;;;;;;4.80;2.05;;;;;;;17.65;53.56;100341.72;5039010;28;20524;-64
2022/12/23 03:04:17;;;;;;;6.07;1.65;;;;;;;17.64;54.21;100339.19;5054560;28;20041;-64
2022/12/23 03:06:44;;;;;;;3.20;1.45;;;;;;;17.63;53.38;100338.34;5038986;28;20054;-64
2022/12/23 03:09:15;;;;;;;6.30;2.17;;;;;;;17.62;53.43;100342.06;5055667;28;20051;-64
2022/12/23 03:12:26;;;;;;;7.68;1.23;;;;;;;17.62;54.11;100336.66;5039014;28;20036;-64
2022/12/23 03:14:51;;;;;;;3.85;1.55;;;;;;;17.65;53.02;100341.72;5051560;28;20511;-64
2022/12/23 03:17:57;;;;;;;5.50;1.40;;;;;;;17.62;53.14;100344.78;5073910;28;20028;-63
2022/12/23 03:20:27;;;;;;;7.07;1.73;;;;;;;17.61;53.36;100343.13;5034139;28;20044;-64
2022/12/23 03:23:02;;;;;;;5.75;1.15;;;;;;;17.63;53.42;100346.47;5054939;28;20047;-66
2022/12/23 03:25:45;;;;;;;2.67;0.95;;;;;;;17.63;53.45;100354.59;5073158;28;20029;-66
2022/12/23 03:28:22;;;;;;;1.73;1.05;;;;;;;17.59;53.54;100342.44;5045231;28;20032;-66
2022/12/23 03:30:51;;;;;;;6.53;1.48;;;;;;;17.59;53.35;100347.88;5055269;28;20120;-65
2022/12/23 03:33:26;;;;;;;4.88;1.25;;;;;;;17.59;53.75;100347.88;5038408;28;20103;-64
2022/12/23 03:35:58;;;;;;;10.45;1.30;;;;;;;17.59;53.25;100341.63;5032745;28;20042;-64
2022/12/23 03:38:24;;;;;;;7.40;1.10;;;;;;;17.58;53.79;100346.19;5055284;28;20020;-64
2022/12/23 03:40:57;;;;;;;1.38;0.80;;;;;;;17.57;53.20;100341.81;5054683;28;20124;-64
2022/12/23 03:43:33;;;;;;;5.15;1.30;;;;;;;17.55;53.16;100330.31;5038028;28;20040;-64
2022/12/23 03:46:03;;;;;;;2.72;0.98;;;;;;;17.55;52.70;100324.06;5054786;28;20036;-64
2022/12/23 03:48:33;;;;;;;2.17;0.90;;;;;;;17.56;53.50;100331.16;5054070;28;20040;-64
2022/12/23 03:51:03;;;;;;;9.82;1.58;;;;;;;17.53;53.08;100329.66;5054681;28;20480;-64
2022/12/23 03:53:31;;;;;;;2.53;0.90;;;;;;;17.56;53.32;100331.16;5055144;28;20047;-63
2022/12/23 03:56:08;;;;;;;2.17;0.77;;;;;;;17.54;53.90;100336.75;5038094;28;20028;-64
2022/12/23 03:58:37;;;;;;;5.03;1.00;;;;;;;17.54;53.91;100325.91;5053274;28;20047;-64
2022/12/23 04:01:13;;;;;;;2.30;0.68;;;;;;;17.56;52.17;100321.16;5054486;28;20036;-64
2022/12/23 04:04:00;;;;;;;4.70;0.85;;;;;;;17.55;53.36;100324.91;5054800;28;20032;-64
2022/12/23 04:06:34;;;;;;;1.27;0.63;;;;;;;17.54;53.25;100315.09;5054593;28;20124;-64
2022/12/23 04:09:00;;;;;;;3.72;0.90;;;;;;;17.57;53.87;100336.38;5054429;28;20043;-64
2022/12/23 04:11:26;;;;;;;4.45;0.85;;;;;;;17.58;52.49;100327.25;5054653;28;20542;-64
2022/12/23 04:13:52;;;;;;;4.53;1.00;;;;;;;17.57;52.68;100328.25;5037481;28;20044;-63
2022/12/23 04:16:17;;;;;;;3.50;1.48;;;;;;;17.56;52.54;100336.59;5054138;28;20028;-66
2022/12/23 04:18:43;;;;;;;6.38;1.58;;;;;;;17.56;52.77;100337.41;5021026;28;20576;-63
2022/12/23 04:21:09;;;;;;;8.80;1.35;;;;;;;17.59;52.58;100345.16;5071919;28;20082;-67
2022/12/23 04:23:35;;;;;;;1.30;1.20;;;;;;;17.58;52.77;100346.19;5054253;28;20086;-64
2022/12/23 04:26:00;;;;;;;4.75;1.55;;;;;;;17.59;52.92;100356.00;5036596;28;20443;-64
2022/12/23 04:28:25;;;;;;;11.70;1.50;;;;;;;17.60;53.11;100356.84;5054197;28;20033;-64
2022/12/23 04:30:51;;;;;;;3.30;1.70;;;;;;;17.60;53.23;100354.97;5054077;28;20082;-64
2022/12/23 04:33:16;;;;;;;3.17;1.70;;;;;;;17.61;53.03;100350.41;5021009;28;20403;-64
2022/12/23 04:35:41;;;;;;;5.03;2.00;;;;;;;17.60;53.21;100354.13;5054254;28;20082;-64
2022/12/23 04:38:07;;;;;;;7.57;1.95;;;;;;;17.59;53.36;100352.47;5037563;28;20043;-64
2022/12/23 04:40:32;;;;;;;11.00;2.60;;;;;;;17.57;53.50;100349.94;5071720;28;20580;-64
2022/12/23 04:42:58;;;;;;;2.60;1.65;;;;;;;17.59;52.84;100353.28;5020839;28;20530;-64
2022/12/23 04:45:23;;;;;;;3.53;1.45;;;;;;;17.58;53.03;100351.63;5053940;28;20035;-64
2022/12/23 04:47:48;;;;;;;12.00;2.17;;;;;;;17.59;52.28;100357.88;5020816;28;20131;-63
2022/12/23 04:50:15;;;;;;;5.38;1.90;;;;;;;17.58;53.10;100342.66;5037587;28;20076;-64
2022/12/23 04:52:41;;;;;;;3.55;1.60;;;;;;;17.55;53.03;100346.56;5036621;28;20032;-66
2022/12/23 04:55:07;;;;;;;7.07;2.00;;;;;;;17.56;52.83;100352.84;5071519;28;20036;-64
2022/12/23 04:57:32;;;;;;;3.92;1.48;;;;;;;17.55;52.51;100352.00;5037107;28;20373;-64
2022/12/23 04:59:57;;;;;;;12.77;1.80;;;;;;;17.56;52.77;100356.34;5020305;28;20055;-63
2022/12/23 05:02:23;;;;;;;3.95;2.00;;;;;;;17.56;53.37;100356.34;5041216;28;20526;-64
2022/12/23 05:04:48;;;;;;;9.40;1.85;;;;;;;17.54;53.23;100360.28;5057652;28;20036;-63
2022/12/23 05:07:14;;;;;;;7.70;2.75;;;;;;;17.52;53.11;100360.44;5057633;28;20047;-64
2022/12/23 05:09:39;;;;;;;7.97;2.22;;;;;;;17.51;53.48;100349.78;5057624;28;20075;-64
2022/12/23 05:12:04;;;;;;;8.05;2.28;;;;;;;17.52;52.84;100355.03;5057494;28;20078;-64
2022/12/23 05:14:30;;;;;;;8.93;1.98;;;;;;;17.52;52.90;100357.75;5041511;28;20534;-64
2022/12/23 05:16:55;;;;;;;5.18;1.58;;;;;;;17.52;53.20;100352.31;5057759;28;20036;-64
2022/12/23 05:19:20;;;;;;;2.72;2.33;;;;;;;17.51;53.16;100349.78;5024337;28;20064;-63
2022/12/23 05:21:46;;;;;;;2.72;1.75;;;;;;;17.53;52.83;100351.31;5024797;28;20048;-64
2022/12/23 05:24:11;;;;;;;8.73;2.83;;;;;;;17.54;52.68;100354.88;5041051;28;20067;-70
2022/12/23 05:26:37;;;;;;;2.55;1.60;;;;;;;17.55;52.70;100367.41;5040824;28;20032;-65
2022/12/23 05:29:02;;;;;;;3.20;1.55;;;;;;;17.54;52.90;100379.25;5058333;28;20491;-63
2022/12/23 05:31:27;;;;;;;3.85;1.50;;;;;;;17.53;52.53;100378.41;5040760;28;20032;-65
2022/12/23 05:33:53;;;;;;;4.10;1.52;;;;;;;17.55;52.88;100386.34;5057575;28;20032;-64
2022/12/23 05:36:18;;;;;;;4.10;1.50;;;;;;;17.56;53.10;100386.16;5039708;28;20033;-64
2022/12/23 05:38:43;;;;;;;4.78;2.03;;;;;;;17.54;52.64;100393.63;5040291;28;20584;-64
2022/12/23 05:41:09;;;;;;;7.45;2.22;;;;;;;17.53;52.62;100386.53;5057821;28;20086;-64
2022/12/23 05:43:34;;;;;;;6.45;2.42;;;;;;;17.51;53.03;100393.97;5040102;28;20083;-64
2022/12/23 05:46:00;;;;;;;3.97;1.80;;;;;;;17.49;53.57;100396.03;5040338;28;20033;-63
2022/12/23 05:48:25;;;;;;;6.15;1.95;;;;;;;17.48;52.81;100394.31;5040334;28;20378;-63
2022/12/23 05:50:51;;;;;;;2.28;1.77;;;;;;;17.49;52.46;100396.03;5040220;28;20047;-64
2022/12/23 05:53:18;;;;;;;4.90;1.75;;;;;;;17.56;52.68;100391.56;5041073;28;20033;-63
2022/12/23 05:55:43;;;;;;;5.53;1.83;;;;;;;17.56;52.42;100383.44;5039932;28;20524;-64
2022/12/23 05:58:09;;;;;;;6.90;1.88;;;;;;;17.57;52.71;100390.56;5055409;28;20094;-64
2022/12/23 06:00:34;;;;;;;4.60;1.88;;;;;;;17.59;52.19;100383.06;5056698;28;20028;-64
2022/12/23 06:02:59;;;;;;;2.90;1.23;;;;;;;17.58;52.59;100376.00;5023653;28;20408;-64
2022/12/23 06:05:25;;;;;;;7.03;1.85;;;;;;;17.64;52.43;100377.13;5040467;28;20028;-64
2022/12/23 06:07:50;;;;;;;4.28;1.63;;;;;;;17.63;52.76;100370.00;5040027;28;20036;-64
2022/12/23 06:10:15;;;;;;;6.40;2.10;;;;;;;17.64;53.18;100372.56;5056573;28;20047;-65
2022/12/23 06:12:41;;;;;;;7.25;2.03;;;;;;;17.62;53.40;100361.03;5056027;28;20408;-63
2022/12/23 06:15:07;;;;;;;8.57;1.73;;;;;;;17.63;51.96;100364.59;5039637;28;20431;-64
2022/12/23 06:17:32;;;;;;;4.38;1.20;;;;;;;17.65;52.25;100368.78;5040134;28;20032;-64
2022/12/23 06:19:57;;;;;;;5.00;1.88;;;;;;;17.67;52.68;100369.44;5039542;28;20031;-64
2022/12/23 06:22:23;;;;;;;3.03;1.48;;;;;;;17.66;52.89;100373.19;5056248;28;20037;-64
2022/12/23 06:24:49;;;;;;;5.55;1.30;;;;;;;17.64;52.77;100369.84;5056322;28;20037;-65
2022/12/23 06:27:14;;;;;;;3.42;1.95;;;;;;;17.65;53.04;100357.13;5056076;28;20031;-64
2022/12/23 06:29:40;;;;;;;4.93;1.85;;;;;;;17.65;52.56;100352.53;5039413;28;20024;-64
2022/12/23 06:32:06;;;;;;;3.83;1.75;;;;;;;17.67;52.40;100353.19;5039737;28;20029;-64
2022/12/23 06:34:32;;;;;;;2.15;1.70;;;;;;;17.67;53.28;100355.91;5056388;28;20415;-64
2022/12/23 06:36:58;;;;;;;3.50;1.40;;;;;;;17.67;52.78;100350.47;5055967;28;20029;-64
2022/12/23 06:39:23;;;;;;;3.88;1.83;;;;;;;17.68;52.75;100346.75;5039104;28;20033;-64
2022/12/23 06:41:49;;;;;;;5.35;1.65;;;;;;;17.68;53.00;100352.16;5039458;28;20047;-64
2022/12/23 06:44:14;;;;;;;6.28;2.35;;;;;;;17.69;52.17;100364.69;5022968;28;20028;-63
2022/12/23 06:46:40;;;;;;;2.72;1.50;;;;;;;17.68;52.97;100357.59;5039123;28;20119;-64
2022/12/23 06:49:05;;;;;;;4.47;2.28;;;;;;;17.69;52.12;100372.81;5038886;28;20511;-63
2022/12/23 06:51:30;;;;;;;3.63;1.65;;;;;;;17.69;52.70;100370.13;5055846;28;20484;-64
2022/12/23 06:53:58;;;;;;;5.15;1.80;;;;;;;17.69;52.47;100386.38;5055832;28;20372;-64
2022/12/23 06:56:23;;;;;;;5.30;1.85;;;;;;;17.66;52.08;100389.44;5056221;28;20104;-64
2022/12/23 06:58:49;;;;;;;4.85;1.65;;;;;;;17.70;53.40;100392.63;5055382;28;20036;-64
2022/12/23 07:01:15;;;;;;;3.70;2.20;;;;;;;17.70;52.01;100396.16;5055629;28;20451;-64
2022/12/23 07:03:40;;;;;;;8.25;1.75;;;;;;;17.71;52.51;100399.72;5022509;28;20040;-63
2022/12/23 07:06:06;;;;;;;3.25;2.03;;;;;;;17.70;52.54;100398.88;5038863;28;20040;-64
2022/12/23 07:08:31;;;;;;;3.80;1.55;;;;;;;17.69;52.10;100402.63;5022722;28;20078;-63
2022/12/23 07:11:01;;;;;;;4.45;1.33;;;;;;;17.66;52.60;100403.00;5022384;28;20086;-63
2022/12/23 07:13:26;;;;;;;2.42;1.38;;;;;;;17.65;52.20;100417.56;5055732;28;20028;-63
2022/12/23 07:15:52;;;;;;;3.75;1.35;;;;;;;17.69;52.52;100413.47;5055287;28;20080;-64
2022/12/23 07:18:17;;;;;;;4.15;1.42;;;;;;;17.68;52.50;100417.19;5073126;28;20519;-64
2022/12/23 07:20:42;;;;;;;7.13;2.08;;;;;;;17.70;52.86;100415.13;5055113;28;20032;-63
2022/12/23 07:23:08;;;;;;;5.90;1.88;;;;;;;17.71;52.56;100411.41;5054429;28;20028;-63
2022/12/23 07:25:33;;;;;;;4.55;2.05;;;;;;;17.71;51.98;100416.81;5054901;28;20036;-63
2022/12/23 07:27:58;;;;;;;8.45;1.65;;;;;;;17.73;51.99;100401.22;5054884;28;20032;-63
2022/12/23 07:30:24;;;;;;;5.43;1.75;;;;;;;17.75;52.27;100407.31;5054768;28;20036;-64
2022/12/23 07:32:50;;;;;;;3.63;1.58;;;;;;;17.74;53.04;100405.63;5038625;28;20036;-65
2022/12/23 07:35:16;;;;;;;4.40;1.80;;;;;;;17.73;53.04;100409.34;5055340;28;20444;-64
2022/12/23 07:37:41;;;;;;;2.60;1.77;;;;;;;17.75;52.89;100423.56;5054867;28;20032;-64
2022/12/23 07:40:07;;;;;;;3.78;1.45;;;;;;;17.76;52.26;100413.53;5037715;28;20079;-64
2022/12/23 07:42:33;;;;;;;6.28;1.42;;;;;;;17.77;52.35;100416.09;5038057;28;20048;-64
2022/12/23 07:44:58;;;;;;;3.55;1.20;;;;;;;17.76;52.75;100408.97;5054545;28;20055;-64
2022/12/23 07:47:24;;;;;;;4.43;1.70;;;;;;;17.76;52.57;100408.97;5055115;28;20032;-64
2022/12/23 07:49:49;;;;;;;4.80;1.83;;;;;;;17.77;53.03;100394.41;5054416;28;20115;-64
2022/12/23 07:52:15;;;;;;;4.45;1.60;;;;;;;17.79;52.45;100397.75;5038063;28;20037;-64
2022/12/23 07:54:41;;;;;;;1.85;1.15;;;;;;;17.80;51.95;100390.47;5037683;28;20037;-64
2022/12/23 07:57:06;;;;;;;3.13;1.40;;;;;;;17.79;52.54;100395.06;5038014;28;20032;-65
2022/12/23 07:59:31;;;;;;;2.70;1.30;;;;;;;17.80;52.69;100394.03;5038400;28;20485;-64
2022/12/23 08:01:57;;;;;;;8.52;2.13;;;;;;;17.80;52.21;100394.03;5037877;28;20598;-64
2022/12/23 08:04:22;;;;;;;2.10;1.70;;;;;;;17.80;52.35;100388.63;5054588;28;20077;-64
2022/12/23 08:06:48;;;;;;;12.90;2.42;;;;;;;17.81;51.88;100390.28;5072524;28;20059;-65
2022/12/23 08:09:13;;;;;;;6.85;2.97;;;;;;;17.82;52.54;100386.56;5054248;28;20040;-64
2022/12/23 08:11:38;;;;;;;2.60;1.42;;;;;;;17.82;52.33;100374.88;5037684;28;20028;-64
2022/12/23 08:14:04;;;;;;;3.42;1.63;;;;;;;17.81;51.94;100378.63;5072717;28;20028;-64
2022/12/23 08:16:29;;;;;;;5.82;1.60;;;;;;;17.80;53.00;100377.78;5054300;28;20058;-65
2022/12/23 08:18:55;;;;;;;5.65;2.33;;;;;;;17.77;52.20;100383.56;5054302;28;20101;-64
2022/12/23 08:21:20;;;;;;;7.82;1.60;;;;;;;17.75;53.12;100388.34;5054091;28;20032;-65
2022/12/23 08:23:46;;;;;;;3.35;1.83;;;;;;;17.75;52.52;100390.22;5021137;28;20055;-64
2022/12/23 08:26:20;;;;;;;3.65;1.33;;;;;;;17.76;52.17;100395.44;5037843;28;20476;-64
2022/12/23 08:28:46;;;;;;;7.07;1.75;;;;;;;17.71;52.65;100384.31;5054169;28;20040;-64
2022/12/23 08:31:13;;;;;;;15.98;1.58;;;;;;;17.74;51.82;100396.63;5054034;28;20029;-64
2022/12/23 08:33:40;;;;;;;4.18;1.58;;;;;;;17.73;52.43;100403.91;5072021;28;20032;-67
2022/12/23 08:36:07;;;;;;;2.42;1.63;;;;;;;17.74;52.38;100393.94;5037083;28;20082;-65
2022/12/23 08:38:33;;;;;;;4.07;1.38;;;;;;;17.74;52.93;100389.34;5054325;28;20074;-64
2022/12/23 08:40:59;;;;;;;2.88;1.35;;;;;;;17.72;52.38;100396.84;5037074;28;20048;-65
2022/12/23 08:43:25;;;;;;;4.35;1.95;;;;;;;17.70;52.05;100393.44;5054100;28;20052;-65
2022/12/23 08:45:50;;;;;;;4.78;1.70;;;;;;;17.67;52.67;100393.81;5054123;28;20033;-64
2022/12/23 08:48:19;;;;;;;3.13;1.92;;;;;;;17.66;51.99;100386.75;5053722;28;20511;-64
2022/12/23 08:50:45;;;;;;;3.25;1.35;;;;;;;17.67;53.04;100376.75;5071174;28;20028;-64
2022/12/23 08:53:11;;;;;;;4.60;1.50;;;;;;;17.65;52.24;100374.22;5037711;28;20044;-64
2022/12/23 08:55:41;;;;;;;4.68;1.77;;;;;;;17.62;52.94;100374.59;5037551;28;20028;-64
2022/12/23 08:58:07;;;;;;;5.60;1.67;;;;;;;17.61;52.55;100367.50;5037333;28;20492;-64
2022/12/23 09:00:33;;;;;;;2.75;1.70;;;;;;;17.60;52.27;100352.28;5072031;28;20581;-66
2022/12/23 09:02:59;;;;;;;2.13;1.40;;;;;;;17.55;52.62;100352.00;5072476;28;20059;-65
2022/12/23 09:05:24;;;;;;;8.52;1.90;;;;;;;17.56;52.93;100363.66;5054649;28;20025;-66
2022/12/23 09:07:50;;;;;;;3.13;1.52;;;;;;;17.57;52.12;100366.19;5037454;28;20043;-69
2022/12/23 09:10:15;;;;;;;7.97;1.92;;;;;;;17.58;53.15;100365.16;5020906;28;20115;-67
2022/12/23 09:12:41;;;;;;;3.42;2.08;;;;;;;17.61;52.60;100355.81;5037575;28;20082;-67
2022/12/23 09:15:06;;;;;;;7.28;2.75;;;;;;;17.60;52.08;100349.56;5054393;28;20427;-67
2022/12/23 09:17:32;;;;;;;4.07;2.05;;;;;;;17.61;52.67;100335.00;5054241;28;20122;-67
2022/12/23 09:19:57;;;;;;;4.93;1.88;;;;;;;17.62;52.99;100330.41;5036917;28;20434;-67
2022/12/23 09:22:23;;;;;;;5.97;1.83;;;;;;;17.61;52.76;100313.34;5054044;28;20033;-68
2022/12/23 09:24:48;;;;;;;6.95;1.92;;;;;;;17.58;52.77;100311.00;5053861;28;20059;-67
2022/12/23 09:27:13;;;;;;;6.97;1.88;;;;;;;17.59;52.42;100315.38;5053836;28;20611;-67
2022/12/23 09:29:39;;;;;;;4.25;2.15;;;;;;;17.57;52.06;100322.84;5037703;28;20017;-67
2022/12/23 09:32:05;;;;;;;4.57;1.65;;;;;;;17.56;52.40;100320.34;5054703;28;20150;-67
2022/12/23 09:34:30;;;;;;;8.55;1.30;;;;;;;17.57;52.76;100317.44;5072010;28;20081;-67
2022/12/23 09:36:56;;;;;;;3.13;1.45;;;;;;;17.59;52.55;100301.81;5037468;28;20031;-68
2022/12/23 09:39:21;;;;;;;3.33;1.42;;;;;;;17.61;53.04;100307.91;5020187;28;20056;-67
2022/12/23 09:42:06;;;;;;;6.68;1.60;;;;;;;17.64;52.19;100301.28;5037310;28;20071;-67
2022/12/23 09:44:41;;;;;;;7.15;1.42;;;;;;;17.66;52.47;100283.81;5037559;28;20104;-67
2022/12/23 09:47:10;;;;;;;2.85;0.98;;;;;;;17.67;52.03;100280.03;5072983;28;20040;-67
2022/12/23 09:49:39;;;;;;;6.57;1.85;;;;;;;17.74;52.02;100291.81;5023583;28;20029;-67
2022/12/23 09:52:08;;;;;;;5.65;1.38;;;;;;;17.76;51.92;100273.50;5057074;28;20043;-67
2022/12/23 09:54:42;;;;;;;6.72;1.90;;;;;;;17.81;52.18;100292.75;5057088;28;20024;-67
2022/12/23 09:57:20;;;;;;;3.60;1.67;;;;;;;17.79;52.53;100283.97;5024373;28;20036;-67
2022/12/23 10:00:08;;;;;;;5.55;1.92;;;;;;;17.83;52.42;100279.03;5056882;28;20370;-67
2022/12/23 10:02:46;;;;;;;5.80;1.95;;;;;;;17.83;51.87;100269.03;5040687;28;20028;-67
2022/12/23 10:05:26;;;;;;;9.20;1.95;;;;;;;17.84;52.46;100275.25;5074946;28;20048;-67
2022/12/23 10:07:53;;;;;;;5.80;1.98;;;;;;;17.85;52.25;100271.53;5055703;28;20045;-67
2022/12/23 10:10:30;;;;;;;6.60;2.10;;;;;;;17.88;52.06;100266.59;5039998;28;20025;-66
2022/12/23 10:12:57;;;;;;;3.28;1.38;;;;;;;17.89;52.46;100276.41;5074576;28;20054;-67
2022/12/23 10:15:30;;;;;;;1.45;1.25;;;;;;;17.90;52.79;100275.34;5039623;28;20557;-67
2022/12/23 10:17:59;;;;;;;4.05;1.67;;;;;;;17.91;52.29;100259.94;5056903;28;20512;-66
2022/12/23 10:20:47;;;;;;;4.63;1.90;;;;;;;17.91;51.76;100258.06;5056862;28;20027;-65
2022/12/23 10:23:26;;;;;;;3.70;1.45;;;;;;;17.96;52.24;100257.50;5057173;28;20044;-65
2022/12/23 10:25:52;;;;;;;5.18;1.88;;;;;;;17.95;51.68;100253.13;5056664;28;20504;-66
2022/12/23 10:28:17;;;;;;;3.50;1.85;;;;;;;17.97;52.87;100249.19;5040352;28;20111;-67
2022/12/23 10:30:50;;;;;;;3.90;1.70;;;;;;;17.97;52.32;100246.47;5057010;28;20107;-66
2022/12/23 10:33:22;;;;;;;;;;;;;;;17.94;51.75;100227.88;5040087;28;20048;-66
2022/12/23 10:35:53;;;;;;;8.73;1.77;;;;;;;17.89;51.79;100224.91;5038188;28;19912;-66
2022/12/23 10:38:34;;;;;;;4.10;1.48;;;;;;;17.84;52.01;100216.50;5056371;28;20476;-66
2022/12/23 10:41:20;;;;;;;2.30;1.30;;;;;;;17.84;51.90;100211.06;5038948;28;20045;-66
2022/12/23 10:44:13;;;;;;;2.97;1.25;;;;;;;17.78;52.14;100216.44;5056095;28;20029;-65
2022/12/23 10:46:59;;;;;;;3.75;1.45;;;;;;;17.70;53.11;100203.00;5055868;28;20036;-67
2022/12/23 10:49:47;;;;;;;5.70;1.13;;;;;;;17.61;52.16;100202.28;5057419;28;20035;-68
2022/12/23 10:52:20;;;;;;;2.85;0.98;;;;;;;17.54;53.22;100197.78;5039395;28;20033;-67
2022/12/23 10:54:46;;;;;;;3.20;1.52;;;;;;;17.42;52.46;100191.97;5039743;28;20025;-67
2022/12/23 10:57:14;;;;;;;2.42;0.88;;;;;;;17.37;53.39;100186.28;5039439;28;20100;-68
2022/12/23 10:59:39;;;;;;;3.55;1.23;;;;;;;17.32;52.83;100183.31;5056295;28;20105;-68
2022/12/23 11:02:31;;;;;;;2.05;1.33;;;;;;;17.22;52.18;100171.94;5056592;28;20036;-68
2022/12/23 11:04:56;;;;;;;3.97;1.10;;;;;;;17.17;52.58;100158.16;5055542;28;20116;-68
2022/12/23 11:07:25;;;;;;;0.73;0.73;;;;;;;17.12;53.63;100149.72;5055360;28;20400;-68
2022/12/23 11:09:54;;;;;;;1.25;1.00;;;;;;;17.10;53.44;100146.38;5038568;28;20047;-68
2022/12/23 11:12:25;;;;;;;8.23;1.20;;;;;;;17.06;53.79;100140.50;5054825;28;20516;-68
2022/12/23 11:14:52;;;;;;;2.50;1.00;;;;;;;17.03;53.40;100140.06;5055299;28;20050;-68
2022/12/23 11:17:23;;;;;;;5.25;1.40;;;;;;;16.98;53.67;100120.81;5055704;28;20035;-68
2022/12/23 11:20:12;;;;;;;5.45;0.98;;;;;;;16.92;52.91;100114.28;5038546;28;20108;-66
2022/12/23 11:22:52;;;;;;;1.55;1.05;;;;;;;16.84;54.02;100096.28;5038406;28;20036;-67
2022/12/23 11:25:24;;;;;;;3.70;1.05;;;;;;;16.84;53.55;100093.59;5055062;28;20032;-68
2022/12/23 11:27:53;;;;;;;3.83;1.42;;;;;;;16.81;53.25;100087.72;5054824;28;20033;-67
2022/12/23 11:30:18;;;;;;;3.50;0.85;;;;;;;16.79;52.85;100074.38;5038329;28;20028;-68
2022/12/23 11:32:44;;;;;;;5.43;2.10;;;;;;;16.78;53.69;100063.72;5038136;28;20036;-68
2022/12/23 11:35:30;;;;;;;2.15;0.90;;;;;;;16.76;53.58;100052.28;5073149;28;20024;-68
2022/12/23 11:37:56;;;;;;;4.07;1.00;;;;;;;16.74;53.76;100047.06;5038135;28;20066;-69
2022/12/23 11:40:27;;;;;;;2.78;1.00;;;;;;;16.76;54.26;100033.34;5037648;28;20037;-69
2022/12/23 11:43:06;;;;;;;4.82;1.00;;;;;;;16.77;54.04;100029.63;5054659;28;20068;-69
2022/12/23 11:45:36;;;;;;;1.17;0.80;;;;;;;16.77;54.40;100033.16;5052310;28;20075;-69
2022/12/23 11:48:03;;;;;;;5.13;1.15;;;;;;;16.76;54.01;100031.47;5038312;28;20059;-68
2022/12/23 11:50:33;;;;;;;1.05;0.70;;;;;;;16.78;54.16;100028.56;5038967;28;20071;-68
2022/12/23 11:53:23;;;;;;;1.63;0.90;;;;;;;16.77;53.75;100018.78;5054740;28;20041;-68
2022/12/23 11:56:06;;;;;;;3.47;1.33;;;;;;;16.79;54.25;100014.88;5054765;28;20033;-67